createdAt,value
2023-05-10T00:00:34.197Z,100897.94
2023-05-10T00:05:35.657Z,100899.03
2023-05-10T00:10:37.141Z,100896.22
2023-05-10T00:15:38.625Z,100888.41
2023-05-10T00:20:40.266Z,100880.16
2023-05-10T00:25:41.821Z,100885.09
2023-05-10T00:30:43.271Z,100866.59
2023-05-10T00:35:44.710Z,100864.38
2023-05-10T00:40:46.235Z,100845.97
2023-05-10T00:45:55.889Z,100848.97
2023-05-10T00:50:57.417Z,100851.94
2023-05-10T00:55:58.925Z,100843.81
2023-05-10T01:01:02.152Z,100844.31
2023-05-10T01:06:03.841Z,100844.88
2023-05-10T01:11:05.472Z,100847.91
2023-05-10T01:16:07.421Z,100830.06
2023-05-10T01:21:34.331Z,100826.16
2023-05-10T01:27:02.874Z,100826.00
2023-05-10T01:32:04.262Z,100829.50
2023-05-10T01:37:11.972Z,100833.94
2023-05-10T01:42:26.572Z,100836.00
2023-05-10T01:47:41.249Z,100818.22
2023-05-10T01:52:45.580Z,100829.47
2023-05-10T01:57:51.944Z,100820.31
2023-05-10T02:02:55.152Z,100818.94
2023-05-10T02:07:57.911Z,100819.59
2023-05-10T02:13:00.353Z,100810.16
2023-05-10T02:18:03.976Z,100817.28
2023-05-10T02:23:06.897Z,100821.72
2023-05-10T02:28:09.422Z,100821.91
2023-05-10T02:33:12.563Z,100819.31
2023-05-10T02:38:15.804Z,100809.22
2023-05-10T02:43:19.248Z,100807.69
2023-05-10T02:48:20.740Z,100801.75
2023-05-10T02:53:31.205Z,100807.00
2023-05-10T02:58:32.701Z,100802.84
2023-05-10T03:03:34.350Z,100796.75
2023-05-10T03:08:36.253Z,100789.34
2023-05-10T03:14:17.304Z,100798.03
2023-05-10T03:19:25.170Z,100788.22
2023-05-10T03:24:28.955Z,100789.25
2023-05-10T03:29:34.410Z,100790.09
2023-05-10T03:34:42.938Z,100791.81
2023-05-10T03:39:44.684Z,100792.00
2023-05-10T03:44:46.405Z,100793.22
2023-05-10T03:49:47.938Z,100791.00
2023-05-10T03:54:49.561Z,100785.91
2023-05-10T03:59:51.023Z,100799.69
2023-05-10T04:04:52.487Z,100795.50
2023-05-10T04:09:54.425Z,100794.69
2023-05-10T04:14:57.399Z,100791.09
2023-05-10T04:19:58.847Z,100779.53
2023-05-10T04:25:00.450Z,100791.19
2023-05-10T04:30:02.330Z,100788.97
2023-05-10T04:35:03.949Z,100790.75
2023-05-10T04:40:06.156Z,100787.31
2023-05-10T04:45:08.027Z,100791.38
2023-05-10T04:50:09.733Z,100790.34
2023-05-10T04:55:11.204Z,100800.34
2023-05-10T05:00:13.096Z,100799.69
2023-05-10T05:05:14.905Z,100796.94
2023-05-10T05:10:16.499Z,100793.88
2023-05-10T05:15:18.115Z,100794.56
2023-05-10T05:20:19.811Z,100796.78
2023-05-10T05:25:21.403Z,100800.94
2023-05-10T05:30:22.861Z,100808.06
2023-05-10T05:35:24.488Z,100806.88
2023-05-10T05:40:26.024Z,100803.56
2023-05-10T05:45:27.554Z,100807.88
2023-05-10T05:50:29.014Z,100812.44
2023-05-10T05:55:30.494Z,100809.78
2023-05-10T06:00:32.044Z,100810.75
2023-05-10T06:05:33.552Z,100808.97
2023-05-10T06:10:35.073Z,100811.28
2023-05-10T06:15:36.485Z,100818.22
2023-05-10T06:20:37.978Z,100821.16
2023-05-10T06:25:39.432Z,100821.69
2023-05-10T06:30:40.841Z,100833.97
2023-05-10T06:35:42.597Z,100831.69
2023-05-10T06:40:44.577Z,100846.97
2023-05-10T06:45:46.037Z,100845.72
2023-05-10T06:50:47.510Z,100851.63
2023-05-10T06:55:50.242Z,100853.97
2023-05-10T07:00:51.692Z,100853.91
2023-05-10T07:05:53.136Z,100854.31
2023-05-10T07:10:59.881Z,100847.34
2023-05-10T07:16:01.649Z,100848.97
2023-05-10T07:21:03.219Z,100857.38
2023-05-10T07:26:04.862Z,100859.78
2023-05-10T07:31:06.335Z,100862.38
2023-05-10T07:36:07.982Z,100875.72
2023-05-10T07:41:09.384Z,100870.22
2023-05-10T07:46:10.895Z,100876.44
2023-05-10T07:51:12.513Z,100871.25
2023-05-10T07:56:33.418Z,100891.75
2023-05-10T08:01:35.509Z,100898.91
2023-05-10T08:06:36.912Z,100907.53
2023-05-10T08:11:38.346Z,100919.13
2023-05-10T08:16:39.916Z,100929.72
2023-05-10T08:21:41.391Z,100928.56
2023-05-10T08:26:42.903Z,100937.06
2023-05-10T08:31:44.342Z,100939.44
2023-05-10T08:36:45.756Z,100935.19
2023-05-10T08:41:48.873Z,100941.84
2023-05-10T08:46:54.463Z,100945.03
2023-05-10T08:51:56.995Z,100947.94
2023-05-10T08:56:58.628Z,100962.34
2023-05-10T09:02:00.522Z,100956.59
2023-05-10T09:07:03.153Z,100972.25
2023-05-10T09:12:04.918Z,100970.53
2023-05-10T09:17:06.735Z,100972.31
2023-05-10T09:22:08.256Z,100979.00
2023-05-10T09:27:09.676Z,100991.88
2023-05-10T09:32:11.136Z,101000.66
2023-05-10T09:37:12.566Z,101008.94
2023-05-10T09:42:14.135Z,101013.88
2023-05-10T09:47:19.104Z,101021.50
2023-05-10T09:52:20.565Z,101024.22
2023-05-10T09:57:23.162Z,101023.03
2023-05-10T10:02:29.822Z,101028.31
2023-05-10T10:07:31.445Z,101029.53
2023-05-10T10:12:33.600Z,101033.53
2023-05-10T10:17:37.266Z,101041.94
2023-05-10T10:22:38.784Z,101037.69
2023-05-10T10:27:52.339Z,101038.88
2023-05-10T10:38:46.827Z,101055.00
2023-05-10T10:43:48.266Z,101057.03
2023-05-10T10:49:08.798Z,101054.66
2023-05-10T10:54:11.537Z,101070.34
2023-05-10T10:59:12.997Z,101070.91
2023-05-10T11:04:14.507Z,101073.25
2023-05-10T11:09:15.973Z,101068.22
2023-05-10T11:14:21.668Z,101068.50
2023-05-10T11:19:28.028Z,101072.88
2023-05-10T11:24:29.473Z,101077.25
2023-05-10T11:29:30.886Z,101079.22
2023-05-10T11:34:33.123Z,101081.97
2023-05-10T11:39:34.561Z,101088.66
2023-05-10T11:44:36.175Z,101083.97
2023-05-10T11:49:37.635Z,101097.22
2023-05-10T11:54:45.384Z,101099.19
2023-05-10T11:59:47.596Z,101103.25
2023-05-10T12:04:49.566Z,101109.44
2023-05-10T12:10:07.074Z,101113.72
2023-05-10T12:15:22.950Z,101104.19
2023-05-10T12:20:24.964Z,101110.91
2023-05-10T12:25:33.084Z,101108.88
2023-05-10T12:30:35.832Z,101110.47
2023-05-10T12:35:54.828Z,101113.88
2023-05-10T12:41:04.636Z,101111.50
2023-05-10T12:46:17.437Z,101120.47
2023-05-10T12:51:18.896Z,101108.91
2023-05-10T12:56:20.322Z,101121.59
2023-05-10T13:01:21.778Z,101125.03
2023-05-10T13:06:23.567Z,101128.13
2023-05-10T13:11:25.218Z,101129.69
2023-05-10T13:16:26.695Z,101128.97
2023-05-10T13:21:28.176Z,101135.75
2023-05-10T13:26:29.716Z,101136.59
2023-05-10T13:31:31.258Z,101133.19
2023-05-10T13:36:32.726Z,101132.88
2023-05-10T13:41:34.560Z,101139.31
2023-05-10T13:46:36.048Z,101133.13
2023-05-10T13:51:37.516Z,101128.13
2023-05-10T13:56:38.941Z,101122.16
2023-05-10T14:01:43.463Z,101126.13
2023-05-10T14:06:44.945Z,101129.78
2023-05-10T14:11:46.852Z,101125.38
2023-05-10T14:16:48.318Z,101124.78
2023-05-10T14:21:49.756Z,101124.91
2023-05-10T14:26:51.188Z,101126.00
2023-05-10T14:31:52.704Z,101121.72
2023-05-10T14:36:54.209Z,101134.06
2023-05-10T14:41:55.837Z,101133.78
2023-05-10T14:46:57.290Z,101132.91
2023-05-10T14:51:58.702Z,101136.03
2023-05-10T14:57:00.280Z,101141.59
2023-05-10T15:02:01.724Z,101145.22
2023-05-10T15:07:03.772Z,101142.28
2023-05-10T15:12:05.189Z,101148.78
2023-05-10T15:17:07.211Z,101164.53
2023-05-10T15:22:08.643Z,101164.75
2023-05-10T15:27:10.113Z,101177.22
2023-05-10T15:32:11.565Z,101179.63
2023-05-10T15:37:13.000Z,101191.38
2023-05-10T15:42:14.430Z,101197.84
2023-05-10T15:47:15.823Z,101194.72
2023-05-10T15:52:17.268Z,101196.91
2023-05-10T15:57:18.691Z,101203.47
2023-05-10T16:02:20.154Z,101208.25
2023-05-10T16:07:21.614Z,101213.13
2023-05-10T16:12:23.155Z,101211.97
2023-05-10T16:17:24.813Z,101214.22
2023-05-10T16:22:26.439Z,101235.25
2023-05-10T16:27:27.888Z,101241.19
2023-05-10T16:32:29.395Z,101246.16
2023-05-10T16:37:30.843Z,101254.53
2023-05-10T16:42:32.443Z,101261.56
2023-05-10T16:47:34.129Z,101271.81
2023-05-10T16:52:36.172Z,101286.03
2023-05-10T16:57:37.891Z,101283.72
2023-05-10T17:02:39.480Z,101292.56
2023-05-10T17:07:41.019Z,101289.19
2023-05-10T17:12:43.194Z,101298.88
2023-05-10T17:17:44.705Z,101314.13
2023-05-10T17:22:46.173Z,101315.97
2023-05-10T17:27:47.656Z,101327.84
2023-05-10T17:32:49.197Z,101327.47
2023-05-10T17:52:17.884Z,101353.25
2023-05-10T17:57:19.433Z,101361.81
2023-05-10T18:02:20.904Z,101366.81
2023-05-10T18:07:22.374Z,101372.47
2023-05-10T18:12:24.292Z,101378.56
2023-05-10T18:17:25.838Z,101375.56
2023-05-10T18:22:27.261Z,101384.53
2023-05-10T18:27:28.811Z,101388.81
2023-05-10T18:32:30.318Z,101389.19
2023-05-10T18:37:31.887Z,101392.31
2023-05-10T18:42:33.320Z,101402.78
2023-05-10T18:47:34.830Z,101403.97
2023-05-10T18:52:36.334Z,101391.13
2023-05-10T18:57:37.782Z,101407.81
2023-05-10T19:02:40.074Z,101406.31
2023-05-10T19:07:41.561Z,101416.38
2023-05-10T19:12:43.020Z,101418.09
2023-05-10T19:17:45.869Z,101431.56
2023-05-10T19:23:02.068Z,101436.22
2023-05-10T19:28:09.845Z,101447.75
2023-05-10T19:33:11.282Z,101458.38
2023-05-10T19:38:12.806Z,101463.63
2023-05-10T19:43:14.270Z,101469.50
2023-05-10T19:48:15.690Z,101469.44
2023-05-10T19:53:17.319Z,101471.41
2023-05-10T19:58:18.744Z,101474.25
2023-05-10T20:03:20.256Z,101475.84
2023-05-10T20:08:21.696Z,101474.25
2023-05-10T20:13:23.300Z,101472.06
2023-05-10T20:18:25.216Z,101479.47
2023-05-10T20:23:26.846Z,101480.75
2023-05-10T20:28:28.500Z,101476.28
2023-05-10T20:33:29.945Z,101475.66
2023-05-10T20:38:31.382Z,101482.66
2023-05-10T20:43:32.879Z,101482.56
2023-05-10T20:48:34.335Z,101478.47
2023-05-10T20:53:35.816Z,101482.91
2023-05-10T20:58:37.255Z,101480.53
2023-05-10T21:03:38.740Z,101480.31
2023-05-10T21:08:40.149Z,101480.94
2023-05-10T21:13:41.594Z,101476.56
2023-05-10T21:18:43.070Z,101480.16
2023-05-10T21:23:47.757Z,101484.19
2023-05-10T21:28:49.210Z,101490.13
2023-05-10T21:33:50.636Z,101489.22
2023-05-10T21:38:52.075Z,101494.69
2023-05-10T21:43:53.566Z,101494.53
2023-05-10T21:48:55.026Z,101491.47
2023-05-10T21:53:56.524Z,101493.59
2023-05-10T21:58:57.985Z,101504.66
2023-05-10T22:04:00.138Z,101506.66
2023-05-10T22:09:01.586Z,101499.94
2023-05-10T22:14:03.034Z,101503.84
2023-05-10T22:19:04.618Z,101509.25
2023-05-10T22:24:06.467Z,101505.00
2023-05-10T22:29:07.917Z,101498.97
2023-05-10T22:34:09.377Z,101510.63
2023-05-10T22:39:10.840Z,101518.06
2023-05-10T22:44:12.261Z,101518.50
2023-05-10T22:49:13.884Z,101525.59
2023-05-10T22:54:15.315Z,101530.72
2023-05-10T22:59:16.769Z,101529.41
2023-05-10T23:04:18.233Z,101525.25
2023-05-10T23:09:19.667Z,101531.09
2023-05-10T23:14:21.123Z,101521.72
2023-05-10T23:19:22.533Z,101527.97
2023-05-10T23:24:23.937Z,101530.16
2023-05-10T23:29:25.382Z,101535.81
2023-05-10T23:34:26.811Z,101535.81
2023-05-10T23:39:28.282Z,101532.47
2023-05-10T23:44:29.739Z,101539.53
2023-05-10T23:49:31.204Z,101546.69
2023-05-10T23:54:32.680Z,101546.84
2023-05-10T23:59:34.086Z,101547.69
